sensor_id;sensor_type;location;lat;lon;timestamp;pressure;altitude;pressure_sealevel;temperature;humidity
38530;BME280;24301;54.332;48.386;2022-12-07T00:02:08;101163.88;;;-9.28;59.43
38530;BME280;24301;54.332;48.386;2022-12-07T00:04:34;101168.06;;;-9.29;59.91
38530;BME280;24301;54.332;48.386;2022-12-07T00:07:00;101167.63;;;-9.33;59.77
38530;BME280;24301;54.332;48.386;2022-12-07T00:09:27;101163.41;;;-9.33;59.71
38530;BME280;24301;54.332;48.386;2022-12-07T00:11:53;101169.00;;;-9.28;60.09
38530;BME280;24301;54.332;48.386;2022-12-07T00:14:19;101158.34;;;-9.24;59.64
38530;BME280;24301;54.332;48.386;2022-12-07T00:16:49;101165.81;;;-9.26;59.59
38530;BME280;24301;54.332;48.386;2022-12-07T00:19:15;101172.72;;;-9.25;60.24
38530;BME280;24301;54.332;48.386;2022-12-07T00:21:41;101157.13;;;-9.28;59.94
38530;BME280;24301;54.332;48.386;2022-12-07T00:24:07;101155.19;;;-9.30;60.13
38530;BME280;24301;54.332;48.386;2022-12-07T00:26:36;101167.50;;;-9.26;59.87
38530;BME280;24301;54.332;48.386;2022-12-07T00:29:18;101164.50;;;-9.22;60.52
38530;BME280;24301;54.332;48.386;2022-12-07T00:31:45;101166.28;;;-9.21;60.41
38530;BME280;24301;54.332;48.386;2022-12-07T00:34:19;101163.13;;;-9.27;60.12
38530;BME280;24301;54.332;48.386;2022-12-07T00:36:46;101168.81;;;-9.30;59.95
38530;BME280;24301;54.332;48.386;2022-12-07T00:39:12;101176.31;;;-9.23;60.08
38530;BME280;24301;54.332;48.386;2022-12-07T00:41:38;101167.63;;;-9.25;60.44
38530;BME280;24301;54.332;48.386;2022-12-07T00:44:04;101169.13;;;-9.27;60.13
38530;BME280;24301;54.332;48.386;2022-12-07T00:46:30;101171.38;;;-9.21;60.32
38530;BME280;24301;54.332;48.386;2022-12-07T00:48:56;101168.25;;;-9.10;60.29
38530;BME280;24301;54.332;48.386;2022-12-07T00:51:24;101176.34;;;-8.96;60.17
38530;BME280;24301;54.332;48.386;2022-12-07T00:53:50;101170.22;;;-8.89;60.83
38530;BME280;24301;54.332;48.386;2022-12-07T00:56:24;101171.84;;;-8.81;60.39
38530;BME280;24301;54.332;48.386;2022-12-07T00:58:58;101173.66;;;-8.80;60.38
38530;BME280;24301;54.332;48.386;2022-12-07T01:01:25;101174.88;;;-8.76;60.74
38530;BME280;24301;54.332;48.386;2022-12-07T01:03:51;101167.66;;;-8.81;59.62
38530;BME280;24301;54.332;48.386;2022-12-07T01:06:19;101171.84;;;-8.81;60.15
38530;BME280;24301;54.332;48.386;2022-12-07T01:08:45;101166.75;;;-8.81;59.84
38530;BME280;24301;54.332;48.386;2022-12-07T01:11:17;101173.81;;;-8.78;60.25
38530;BME280;24301;54.332;48.386;2022-12-07T01:13:43;101162.56;;;-8.81;60.25
38530;BME280;24301;54.332;48.386;2022-12-07T01:16:13;101161.19;;;-8.86;60.04
38530;BME280;24301;54.332;48.386;2022-12-07T01:18:40;101164.97;;;-8.82;60.20
38530;BME280;24301;54.332;48.386;2022-12-07T01:21:09;101159.09;;;-8.72;60.25
38530;BME280;24301;54.332;48.386;2022-12-07T01:23:36;101155.22;;;-8.77;60.28
38530;BME280;24301;54.332;48.386;2022-12-07T01:26:05;101161.19;;;-8.77;60.17
38530;BME280;24301;54.332;48.386;2022-12-07T01:28:32;101161.94;;;-8.78;60.22
38530;BME280;24301;54.332;48.386;2022-12-07T01:33:30;101165.72;;;-8.83;60.13
38530;BME280;24301;54.332;48.386;2022-12-07T01:36:08;101172.31;;;-8.76;60.46
38530;BME280;24301;54.332;48.386;2022-12-07T01:38:34;101168.09;;;-8.76;60.20
38530;BME280;24301;54.332;48.386;2022-12-07T01:41:01;101172.75;;;-8.72;59.88
38530;BME280;24301;54.332;48.386;2022-12-07T01:43:29;101163.47;;;-8.80;60.04
38530;BME280;24301;54.332;48.386;2022-12-07T01:45:56;101175.16;;;-8.82;60.33
38530;BME280;24301;54.332;48.386;2022-12-07T01:48:27;101161.34;;;-8.84;60.23
38530;BME280;24301;54.332;48.386;2022-12-07T01:50:56;101163.47;;;-8.80;60.78
38530;BME280;24301;54.332;48.386;2022-12-07T01:53:26;101155.97;;;-8.87;59.97
38530;BME280;24301;54.332;48.386;2022-12-07T01:55:54;101158.50;;;-8.96;60.09
38530;BME280;24301;54.332;48.386;2022-12-07T01:58:22;101167.06;;;-8.96;60.56
38530;BME280;24301;54.332;48.386;2022-12-07T02:00:49;101169.75;;;-8.94;60.83
38530;BME280;24301;54.332;48.386;2022-12-07T02:03:20;101171.56;;;-8.93;61.01
38530;BME280;24301;54.332;48.386;2022-12-07T02:05:48;101173.66;;;-8.98;60.57
38530;BME280;24301;54.332;48.386;2022-12-07T02:08:14;101175.00;;;-9.01;60.42
38530;BME280;24301;54.332;48.386;2022-12-07T02:10:40;101177.69;;;-9.00;60.68
38530;BME280;24301;54.332;48.386;2022-12-07T02:16:02;101158.81;;;-9.02;60.98
38530;BME280;24301;54.332;48.386;2022-12-07T02:18:36;101171.84;;;-8.99;60.66
38530;BME280;24301;54.332;48.386;2022-12-07T02:23:45;101166.91;;;-9.06;60.98
38530;BME280;24301;54.332;48.386;2022-12-07T02:34:42;101174.84;;;-9.20;61.97
38530;BME280;24301;54.332;48.386;2022-12-07T02:37:33;101172.88;;;-9.32;61.71
38530;BME280;24301;54.332;48.386;2022-12-07T02:40:08;101174.50;;;-9.41;61.52
38530;BME280;24301;54.332;48.386;2022-12-07T02:42:40;101178.59;;;-9.34;61.29
38530;BME280;24301;54.332;48.386;2022-12-07T02:45:10;101167.19;;;-9.29;61.67
38530;BME280;24301;54.332;48.386;2022-12-07T02:47:39;101165.66;;;-9.36;62.18
38530;BME280;24301;54.332;48.386;2022-12-07T02:50:07;101173.00;;;-9.39;61.54
38530;BME280;24301;54.332;48.386;2022-12-07T02:52:33;101174.22;;;-9.44;62.24
38530;BME280;24301;54.332;48.386;2022-12-07T02:54:59;101173.88;;;-9.47;61.93
38530;BME280;24301;54.332;48.386;2022-12-07T02:57:41;101171.19;;;-9.49;62.44
38530;BME280;24301;54.332;48.386;2022-12-07T03:00:11;101177.16;;;-9.48;62.28
38530;BME280;24301;54.332;48.386;2022-12-07T03:03:02;101179.31;;;-9.44;62.62
38530;BME280;24301;54.332;48.386;2022-12-07T03:11:10;101177.78;;;-9.51;62.05
38530;BME280;24301;54.332;48.386;2022-12-07T03:16:35;101177.03;;;-9.50;62.22
38530;BME280;24301;54.332;48.386;2022-12-07T03:19:13;101184.06;;;-9.56;63.04
38530;BME280;24301;54.332;48.386;2022-12-07T03:21:44;101183.72;;;-9.68;62.48
38530;BME280;24301;54.332;48.386;2022-12-07T03:24:18;101174.09;;;-9.79;62.96
38530;BME280;24301;54.332;48.386;2022-12-07T03:26:49;101178.56;;;-9.86;62.62
38530;BME280;24301;54.332;48.386;2022-12-07T03:29:22;101177.63;;;-9.95;62.85
38530;BME280;24301;54.332;48.386;2022-12-07T03:32:02;101172.50;;;-10.04;63.43
38530;BME280;24301;54.332;48.386;2022-12-07T03:34:38;101182.06;;;-10.01;63.20
38530;BME280;24301;54.332;48.386;2022-12-07T03:37:57;101181.94;;;-10.03;63.48
38530;BME280;24301;54.332;48.386;2022-12-07T03:40:35;101171.97;;;-10.17;64.56
38530;BME280;24301;54.332;48.386;2022-12-07T03:43:03;101177.75;;;-10.27;63.83
38530;BME280;24301;54.332;48.386;2022-12-07T03:45:39;101193.44;;;-10.31;63.99
38530;BME280;24301;54.332;48.386;2022-12-07T03:48:49;101183.69;;;-10.35;64.63
38530;BME280;24301;54.332;48.386;2022-12-07T03:53:39;101181.00;;;-10.46;65.02
38530;BME280;24301;54.332;48.386;2022-12-07T03:56:08;101195.03;;;-10.49;64.57
38530;BME280;24301;54.332;48.386;2022-12-07T03:58:37;101180.00;;;-10.55;64.68
38530;BME280;24301;54.332;48.386;2022-12-07T04:01:04;101185.41;;;-10.52;65.41
38530;BME280;24301;54.332;48.386;2022-12-07T04:03:29;101190.81;;;-10.49;65.24
38530;BME280;24301;54.332;48.386;2022-12-07T04:05:55;101190.09;;;-10.48;65.21
38530;BME280;24301;54.332;48.386;2022-12-07T04:08:21;101193.84;;;-10.44;65.35
38530;BME280;24301;54.332;48.386;2022-12-07T04:10:47;101192.81;;;-10.37;64.88
38530;BME280;24301;54.332;48.386;2022-12-07T04:13:13;101191.47;;;-10.43;64.78
38530;BME280;24301;54.332;48.386;2022-12-07T04:15:39;101191.31;;;-10.35;64.76
38530;BME280;24301;54.332;48.386;2022-12-07T04:18:05;101199.59;;;-10.29;65.27
38530;BME280;24301;54.332;48.386;2022-12-07T04:20:31;101190.47;;;-10.27;65.24
38530;BME280;24301;54.332;48.386;2022-12-07T04:22:57;101193.88;;;-10.35;64.77
38530;BME280;24301;54.332;48.386;2022-12-07T04:25:22;101198.97;;;-10.35;65.30
38530;BME280;24301;54.332;48.386;2022-12-07T04:27:48;101195.97;;;-10.40;64.83
38530;BME280;24301;54.332;48.386;2022-12-07T04:30:14;101205.44;;;-10.30;65.04
38530;BME280;24301;54.332;48.386;2022-12-07T04:32:40;101205.59;;;-10.29;65.35
38530;BME280;24301;54.332;48.386;2022-12-07T04:35:06;101206.66;;;-10.27;64.87
38530;BME280;24301;54.332;48.386;2022-12-07T04:37:33;101205.00;;;-10.26;65.33
38530;BME280;24301;54.332;48.386;2022-12-07T04:39:59;101206.66;;;-10.27;65.58
38530;BME280;24301;54.332;48.386;2022-12-07T04:42:24;101200.34;;;-10.30;64.81
38530;BME280;24301;54.332;48.386;2022-12-07T04:44:50;101203.13;;;-10.36;64.46
38530;BME280;24301;54.332;48.386;2022-12-07T04:50:51;101194.38;;;-10.56;65.34
38530;BME280;24301;54.332;48.386;2022-12-07T04:53:18;101199.19;;;-10.50;64.78
38530;BME280;24301;54.332;48.386;2022-12-07T04:55:45;101202.94;;;-10.21;65.38
38530;BME280;24301;54.332;48.386;2022-12-07T04:58:12;101219.09;;;-9.71;65.71
38530;BME280;24301;54.332;48.386;2022-12-07T05:00:38;101208.59;;;-9.14;64.88
38530;BME280;24301;54.332;48.386;2022-12-07T05:03:05;101204.22;;;-8.45;64.59
38530;BME280;24301;54.332;48.386;2022-12-07T05:05:31;101214.94;;;-7.58;63.30
38530;BME280;24301;54.332;48.386;2022-12-07T05:07:57;101217.22;;;-7.05;61.81
38530;BME280;24301;54.332;48.386;2022-12-07T05:10:23;101190.94;;;-6.74;60.41
38530;BME280;24301;54.332;48.386;2022-12-07T05:12:49;101185.25;;;-6.13;59.69
38530;BME280;24301;54.332;48.386;2022-12-07T05:15:15;101193.97;;;-5.50;59.04
38530;BME280;24301;54.332;48.386;2022-12-07T05:17:41;101196.16;;;-4.93;57.17
38530;BME280;24301;54.332;48.386;2022-12-07T05:20:08;101205.53;;;-4.29;55.96
38530;BME280;24301;54.332;48.386;2022-12-07T05:22:34;101204.91;;;-3.72;55.35
38530;BME280;24301;54.332;48.386;2022-12-07T05:25:01;101216.41;;;-3.22;54.15
38530;BME280;24301;54.332;48.386;2022-12-07T05:27:28;101205.91;;;-2.67;53.04
38530;BME280;24301;54.332;48.386;2022-12-07T05:29:54;101216.44;;;-2.05;52.27
38530;BME280;24301;54.332;48.386;2022-12-07T05:32:20;101207.09;;;-1.53;51.01
38530;BME280;24301;54.332;48.386;2022-12-07T05:34:46;101205.28;;;-1.17;49.75
38530;BME280;24301;54.332;48.386;2022-12-07T05:37:12;101208.88;;;-0.63;49.00
38530;BME280;24301;54.332;48.386;2022-12-07T05:39:38;101221.53;;;0.00;47.82
38530;BME280;24301;54.332;48.386;2022-12-07T05:42:06;101222.72;;;0.47;46.66
38530;BME280;24301;54.332;48.386;2022-12-07T05:44:43;101216.50;;;1.02;44.87
38530;BME280;24301;54.332;48.386;2022-12-07T05:47:10;101219.28;;;1.35;44.35
38530;BME280;24301;54.332;48.386;2022-12-07T05:49:37;101218.75;;;1.56;42.83
38530;BME280;24301;54.332;48.386;2022-12-07T05:52:03;101227.75;;;1.78;42.58
38530;BME280;24301;54.332;48.386;2022-12-07T05:54:29;101221.63;;;2.24;41.93
38530;BME280;24301;54.332;48.386;2022-12-07T05:56:55;101214.94;;;2.77;40.84
38530;BME280;24301;54.332;48.386;2022-12-07T05:59:21;101219.84;;;3.22;39.59
38530;BME280;24301;54.332;48.386;2022-12-07T06:01:55;101215.97;;;3.49;38.68
38530;BME280;24301;54.332;48.386;2022-12-07T06:04:22;101231.19;;;3.77;38.14
38530;BME280;24301;54.332;48.386;2022-12-07T06:06:48;101223.00;;;4.06;37.17
38530;BME280;24301;54.332;48.386;2022-12-07T06:09:14;101227.16;;;4.58;37.12
38530;BME280;24301;54.332;48.386;2022-12-07T06:11:40;101227.47;;;5.05;36.12
38530;BME280;24301;54.332;48.386;2022-12-07T06:14:25;101226.75;;;5.50;35.37
38530;BME280;24301;54.332;48.386;2022-12-07T06:16:51;101226.66;;;5.91;35.17
38530;BME280;24301;54.332;48.386;2022-12-07T06:19:17;101231.19;;;6.16;33.82
38530;BME280;24301;54.332;48.386;2022-12-07T06:21:43;101223.03;;;6.54;32.65
38530;BME280;24301;54.332;48.386;2022-12-07T06:24:13;101229.28;;;6.82;31.01
38530;BME280;24301;54.332;48.386;2022-12-07T06:26:40;101233.16;;;6.94;31.50
38530;BME280;24301;54.332;48.386;2022-12-07T06:29:06;101228.19;;;7.00;31.22
38530;BME280;24301;54.332;48.386;2022-12-07T06:31:32;101234.31;;;7.26;30.62
38530;BME280;24301;54.332;48.386;2022-12-07T06:33:59;101232.25;;;7.43;30.68
38530;BME280;24301;54.332;48.386;2022-12-07T06:36:25;101245.00;;;7.86;29.98
38530;BME280;24301;54.332;48.386;2022-12-07T06:38:52;101244.38;;;8.50;29.66
38530;BME280;24301;54.332;48.386;2022-12-07T06:41:18;101247.06;;;8.51;28.83
38530;BME280;24301;54.332;48.386;2022-12-07T06:43:44;101247.22;;;8.57;28.59
38530;BME280;24301;54.332;48.386;2022-12-07T06:46:10;101235.59;;;8.78;28.28
38530;BME280;24301;54.332;48.386;2022-12-07T06:48:36;101238.03;;;9.04;27.66
38530;BME280;24301;54.332;48.386;2022-12-07T06:51:02;101246.56;;;8.97;27.25
38530;BME280;24301;54.332;48.386;2022-12-07T06:53:27;101239.38;;;9.55;27.14
38530;BME280;24301;54.332;48.386;2022-12-07T06:55:53;101243.84;;;9.96;25.99
38530;BME280;24301;54.332;48.386;2022-12-07T06:58:20;101248.22;;;10.34;25.70
38530;BME280;24301;54.332;48.386;2022-12-07T07:00:47;101235.00;;;10.29;25.02
38530;BME280;24301;54.332;48.386;2022-12-07T07:03:14;101239.31;;;10.27;25.18
38530;BME280;24301;54.332;48.386;2022-12-07T07:05:39;101242.75;;;10.25;25.02
38530;BME280;24301;54.332;48.386;2022-12-07T07:08:05;101243.56;;;10.22;24.47
38530;BME280;24301;54.332;48.386;2022-12-07T07:10:32;101240.19;;;10.66;24.85
38530;BME280;24301;54.332;48.386;2022-12-07T07:12:58;101254.69;;;11.36;24.17
38530;BME280;24301;54.332;48.386;2022-12-07T07:15:24;101248.13;;;11.63;23.43
38530;BME280;24301;54.332;48.386;2022-12-07T07:17:50;101245.28;;;11.50;22.95
38530;BME280;24301;54.332;48.386;2022-12-07T07:20:16;101243.13;;;11.28;23.23
38530;BME280;24301;54.332;48.386;2022-12-07T07:22:42;101243.19;;;11.32;23.02
38530;BME280;24301;54.332;48.386;2022-12-07T07:25:11;101233.53;;;11.31;22.81
38530;BME280;24301;54.332;48.386;2022-12-07T07:27:38;101240.44;;;11.75;23.04
38530;BME280;24301;54.332;48.386;2022-12-07T07:30:05;101239.25;;;12.12;22.67
38530;BME280;24301;54.332;48.386;2022-12-07T07:32:31;101234.84;;;12.12;22.29
38530;BME280;24301;54.332;48.386;2022-12-07T07:34:57;101234.69;;;11.47;21.76
38530;BME280;24301;54.332;48.386;2022-12-07T07:37:23;101239.78;;;10.89;22.43
38530;BME280;24301;54.332;48.386;2022-12-07T07:39:49;101232.34;;;11.15;22.90
38530;BME280;24301;54.332;48.386;2022-12-07T07:42:15;101228.25;;;11.30;22.68
38530;BME280;24301;54.332;48.386;2022-12-07T07:44:42;101233.88;;;11.01;22.49
38530;BME280;24301;54.332;48.386;2022-12-07T07:47:08;101226.19;;;10.67;22.68
38530;BME280;24301;54.332;48.386;2022-12-07T07:49:34;101231.28;;;10.59;22.68
38530;BME280;24301;54.332;48.386;2022-12-07T07:52:00;101225.41;;;10.31;22.96
38530;BME280;24301;54.332;48.386;2022-12-07T07:54:26;101224.41;;;9.17;23.38
38530;BME280;24301;54.332;48.386;2022-12-07T07:56:52;101229.84;;;6.98;24.59
38530;BME280;24301;54.332;48.386;2022-12-07T07:59:18;101225.22;;;4.73;27.36
38530;BME280;24301;54.332;48.386;2022-12-07T08:01:44;101229.22;;;2.85;29.72
38530;BME280;24301;54.332;48.386;2022-12-07T08:04:10;101216.16;;;1.11;31.03
38530;BME280;24301;54.332;48.386;2022-12-07T08:06:36;101224.00;;;-0.15;32.14
38530;BME280;24301;54.332;48.386;2022-12-07T08:09:02;101222.75;;;-1.13;33.32
38530;BME280;24301;54.332;48.386;2022-12-07T08:11:30;101225.81;;;-1.93;33.99
38530;BME280;24301;54.332;48.386;2022-12-07T08:13:55;101220.25;;;-2.47;35.16
38530;BME280;24301;54.332;48.386;2022-12-07T08:16:22;101216.28;;;-2.90;35.84
38530;BME280;24301;54.332;48.386;2022-12-07T08:18:47;101208.84;;;-3.43;36.30
38530;BME280;24301;54.332;48.386;2022-12-07T08:21:14;101232.78;;;-3.66;36.54
38530;BME280;24301;54.332;48.386;2022-12-07T08:23:40;101218.00;;;-3.91;37.12
38530;BME280;24301;54.332;48.386;2022-12-07T08:26:10;101222.13;;;-4.04;37.55
38530;BME280;24301;54.332;48.386;2022-12-07T08:28:37;101227.34;;;-4.24;38.21
38530;BME280;24301;54.332;48.386;2022-12-07T08:31:05;101228.94;;;-4.47;38.65
38530;BME280;24301;54.332;48.386;2022-12-07T08:33:32;101225.13;;;-4.63;38.78
38530;BME280;24301;54.332;48.386;2022-12-07T08:36:05;101217.06;;;-4.78;39.35
38530;BME280;24301;54.332;48.386;2022-12-07T08:38:34;101211.03;;;-4.78;39.41
38530;BME280;24301;54.332;48.386;2022-12-07T08:41:02;101213.31;;;-4.71;39.75
38530;BME280;24301;54.332;48.386;2022-12-07T08:43:51;101186.75;;;-4.71;39.99
38530;BME280;24301;54.332;48.386;2022-12-07T08:46:51;101211.25;;;-4.54;39.77
38530;BME280;24301;54.332;48.386;2022-12-07T08:49:25;101206.84;;;-4.45;40.19
38530;BME280;24301;54.332;48.386;2022-12-07T08:51:55;101206.84;;;-4.45;39.86
38530;BME280;24301;54.332;48.386;2022-12-07T08:54:21;101210.03;;;-4.37;40.52
38530;BME280;24301;54.332;48.386;2022-12-07T08:56:48;101186.81;;;-4.39;40.33
38530;BME280;24301;54.332;48.386;2022-12-07T08:59:17;101202.44;;;-4.25;40.47
38530;BME280;24301;54.332;48.386;2022-12-07T09:01:45;101201.66;;;-4.24;40.90
38530;BME280;24301;54.332;48.386;2022-12-07T09:04:11;101208.00;;;-4.41;40.78
38530;BME280;24301;54.332;48.386;2022-12-07T09:06:37;101213.97;;;-4.84;41.94
38530;BME280;24301;54.332;48.386;2022-12-07T09:09:03;101188.53;;;-5.64;43.34
38530;BME280;24301;54.332;48.386;2022-12-07T09:11:30;101210.03;;;-5.82;43.60
38530;BME280;24301;54.332;48.386;2022-12-07T09:13:56;101208.88;;;-5.86;44.15
38530;BME280;24301;54.332;48.386;2022-12-07T09:16:22;101201.56;;;-5.92;44.77
38530;BME280;24301;54.332;48.386;2022-12-07T09:18:49;101213.50;;;-5.71;44.87
38530;BME280;24301;54.332;48.386;2022-12-07T09:21:15;101215.59;;;-5.67;44.72
38530;BME280;24301;54.332;48.386;2022-12-07T09:23:41;101207.00;;;-5.78;44.74
38530;BME280;24301;54.332;48.386;2022-12-07T09:26:08;101216.84;;;-5.72;44.95
38530;BME280;24301;54.332;48.386;2022-12-07T09:28:34;101213.94;;;-5.96;45.41
38530;BME280;24301;54.332;48.386;2022-12-07T09:31:02;101199.25;;;-6.28;46.32
38530;BME280;24301;54.332;48.386;2022-12-07T09:33:28;101214.13;;;-6.54;47.13
38530;BME280;24301;54.332;48.386;2022-12-07T09:35:54;101210.00;;;-7.09;47.67
38530;BME280;24301;54.332;48.386;2022-12-07T09:38:20;101210.16;;;-7.36;49.23
38530;BME280;24301;54.332;48.386;2022-12-07T09:40:47;101218.97;;;-7.23;49.36
38530;BME280;24301;54.332;48.386;2022-12-07T09:43:17;101209.22;;;-7.27;49.67
38530;BME280;24301;54.332;48.386;2022-12-07T09:45:44;101208.72;;;-7.42;49.98
38530;BME280;24301;54.332;48.386;2022-12-07T09:48:18;101187.59;;;-7.59;50.77
38530;BME280;24301;54.332;48.386;2022-12-07T09:50:57;101203.75;;;-7.22;50.23
38530;BME280;24301;54.332;48.386;2022-12-07T09:53:32;101197.88;;;-6.93;50.22
38530;BME280;24301;54.332;48.386;2022-12-07T09:55:59;101198.00;;;-6.72;49.63
38530;BME280;24301;54.332;48.386;2022-12-07T09:58:38;101190.53;;;-6.79;49.96
38530;BME280;24301;54.332;48.386;2022-12-07T10:03:35;101193.31;;;-7.33;51.08
38530;BME280;24301;54.332;48.386;2022-12-07T10:06:04;101188.69;;;-7.74;52.90
38530;BME280;24301;54.332;48.386;2022-12-07T10:08:31;101203.56;;;-8.07;54.07
38530;BME280;24301;54.332;48.386;2022-12-07T10:10:57;101195.47;;;-8.29;55.94
38530;BME280;24301;54.332;48.386;2022-12-07T10:13:41;101200.28;;;-8.15;56.89
38530;BME280;24301;54.332;48.386;2022-12-07T10:16:41;101197.72;;;-8.15;57.53
38530;BME280;24301;54.332;48.386;2022-12-07T10:19:24;101202.84;;;-8.32;58.03
38530;BME280;24301;54.332;48.386;2022-12-07T10:22:14;101216.06;;;-8.37;59.25
38530;BME280;24301;54.332;48.386;2022-12-07T10:24:41;101203.47;;;-8.44;57.94
38530;BME280;24301;54.332;48.386;2022-12-07T10:27:22;101209.50;;;-8.52;59.82
38530;BME280;24301;54.332;48.386;2022-12-07T10:29:52;101195.56;;;-8.73;58.47
38530;BME280;24301;54.332;48.386;2022-12-07T10:34:45;101205.19;;;-8.71;60.39
38530;BME280;24301;54.332;48.386;2022-12-07T10:39:48;101185.53;;;-8.81;60.77
38530;BME280;24301;54.332;48.386;2022-12-07T10:42:28;101200.97;;;-8.97;62.06
38530;BME280;24301;54.332;48.386;2022-12-07T10:45:17;101191.63;;;-9.14;63.47
38530;BME280;24301;54.332;48.386;2022-12-07T10:50:47;101203.94;;;-9.18;63.56
38530;BME280;24301;54.332;48.386;2022-12-07T10:53:23;101196.91;;;-9.12;63.81
38530;BME280;24301;54.332;48.386;2022-12-07T10:56:02;101196.00;;;-9.21;64.26
38530;BME280;24301;54.332;48.386;2022-12-07T11:03:59;101203.34;;;-8.98;64.16
38530;BME280;24301;54.332;48.386;2022-12-07T11:06:54;101196.00;;;-9.04;64.25
38530;BME280;24301;54.332;48.386;2022-12-07T11:17:45;101184.41;;;-9.27;64.37
38530;BME280;24301;54.332;48.386;2022-12-07T11:20:42;101194.78;;;-9.16;65.11
38530;BME280;24301;54.332;48.386;2022-12-07T11:26:08;101194.31;;;-9.30;65.38
38530;BME280;24301;54.332;48.386;2022-12-07T11:37:25;101194.59;;;-9.35;65.96
38530;BME280;24301;54.332;48.386;2022-12-07T11:40:04;101200.00;;;-9.24;65.62
38530;BME280;24301;54.332;48.386;2022-12-07T11:42:38;101195.38;;;-9.19;65.49
38530;BME280;24301;54.332;48.386;2022-12-07T11:47:45;101192.34;;;-9.41;67.54
38530;BME280;24301;54.332;48.386;2022-12-07T11:53:01;101183.09;;;-9.74;70.28
38530;BME280;24301;54.332;48.386;2022-12-07T11:55:46;101199.09;;;-9.75;69.87
38530;BME280;24301;54.332;48.386;2022-12-07T12:00:56;101187.53;;;-9.89;70.18
38530;BME280;24301;54.332;48.386;2022-12-07T12:03:34;101191.41;;;-9.93;70.89
38530;BME280;24301;54.332;48.386;2022-12-07T12:06:03;101186.47;;;-9.91;70.81
38530;BME280;24301;54.332;48.386;2022-12-07T12:08:33;101189.19;;;-9.90;71.36
38530;BME280;24301;54.332;48.386;2022-12-07T12:11:30;101190.25;;;-9.88;72.19
38530;BME280;24301;54.332;48.386;2022-12-07T12:23:00;101215.22;;;-10.17;74.23
38530;BME280;24301;54.332;48.386;2022-12-07T12:25:43;101196.63;;;-10.25;73.60
38530;BME280;24301;54.332;48.386;2022-12-07T12:31:09;101189.09;;;-10.32;73.84
38530;BME280;24301;54.332;48.386;2022-12-07T12:33:37;101186.41;;;-10.34;74.39
38530;BME280;24301;54.332;48.386;2022-12-07T12:38:49;101191.81;;;-10.31;74.24
38530;BME280;24301;54.332;48.386;2022-12-07T12:46:58;101173.06;;;-10.40;74.27
38530;BME280;24301;54.332;48.386;2022-12-07T12:54:37;101181.72;;;-10.47;73.83
38530;BME280;24301;54.332;48.386;2022-12-07T12:57:28;101181.25;;;-10.51;73.27
38530;BME280;24301;54.332;48.386;2022-12-07T13:02:35;101171.06;;;-10.51;73.43
38530;BME280;24301;54.332;48.386;2022-12-07T13:05:14;101170.63;;;-10.47;72.81
38530;BME280;24301;54.332;48.386;2022-12-07T13:29:19;101172.00;;;-9.75;70.57
38530;BME280;24301;54.332;48.386;2022-12-07T13:31:56;101168.13;;;-9.71;70.02
38530;BME280;24301;54.332;48.386;2022-12-07T13:37:00;101158.88;;;-9.62;68.93
38530;BME280;24301;54.332;48.386;2022-12-07T13:39:27;101160.66;;;-9.61;69.02
38530;BME280;24301;54.332;48.386;2022-12-07T13:41:55;101160.66;;;-9.61;68.81
38530;BME280;24301;54.332;48.386;2022-12-07T13:44:24;101168.47;;;-9.59;68.54
38530;BME280;24301;54.332;48.386;2022-12-07T13:47:13;101165.94;;;-9.50;68.41
38530;BME280;24301;54.332;48.386;2022-12-07T13:50:30;101158.59;;;-9.39;68.04
38530;BME280;24301;54.332;48.386;2022-12-07T13:52:58;101164.63;;;-9.29;68.21
38530;BME280;24301;54.332;48.386;2022-12-07T13:55:25;101160.13;;;-9.23;67.70
38530;BME280;24301;54.332;48.386;2022-12-07T13:57:53;101155.34;;;-9.20;67.33
38530;BME280;24301;54.332;48.386;2022-12-07T14:00:25;101154.91;;;-9.16;67.07
38530;BME280;24301;54.332;48.386;2022-12-07T14:03:03;101147.25;;;-9.16;66.09
38530;BME280;24301;54.332;48.386;2022-12-07T14:05:32;101146.81;;;-9.20;66.18
38530;BME280;24301;54.332;48.386;2022-12-07T14:08:04;101148.28;;;-9.23;66.23
38530;BME280;24301;54.332;48.386;2022-12-07T14:12:59;101144.84;;;-9.32;65.87
38530;BME280;24301;54.332;48.386;2022-12-07T14:15:33;101156.22;;;-9.37;65.99
38530;BME280;24301;54.332;48.386;2022-12-07T14:18:00;101143.91;;;-9.50;65.65
38530;BME280;24301;54.332;48.386;2022-12-07T14:20:39;101129.50;;;-9.67;65.47
38530;BME280;24301;54.332;48.386;2022-12-07T14:23:23;101142.47;;;-9.82;64.74
38530;BME280;24301;54.332;48.386;2022-12-07T14:25:52;101145.59;;;-9.93;64.93
38530;BME280;24301;54.332;48.386;2022-12-07T14:28:32;101137.75;;;-10.03;65.76
38530;BME280;24301;54.332;48.386;2022-12-07T14:31:00;101141.63;;;-10.07;65.15
38530;BME280;24301;54.332;48.386;2022-12-07T14:33:26;101139.84;;;-10.08;65.33
38530;BME280;24301;54.332;48.386;2022-12-07T14:35:53;101144.16;;;-10.16;65.65
38530;BME280;24301;54.332;48.386;2022-12-07T14:38:21;101138.56;;;-10.20;65.77
38530;BME280;24301;54.332;48.386;2022-12-07T14:40:48;101143.63;;;-10.29;65.74
38530;BME280;24301;54.332;48.386;2022-12-07T14:43:16;101136.56;;;-10.41;65.39
38530;BME280;24301;54.332;48.386;2022-12-07T14:45:42;101136.94;;;-10.54;65.76
38530;BME280;24301;54.332;48.386;2022-12-07T14:48:15;101146.19;;;-10.54;65.94
38530;BME280;24301;54.332;48.386;2022-12-07T14:50:49;101146.00;;;-10.64;66.31
38530;BME280;24301;54.332;48.386;2022-12-07T14:53:17;101144.88;;;-10.75;66.08
38530;BME280;24301;54.332;48.386;2022-12-07T14:55:44;101139.59;;;-10.77;66.53
38530;BME280;24301;54.332;48.386;2022-12-07T14:58:19;101139.41;;;-10.87;67.38
38530;BME280;24301;54.332;48.386;2022-12-07T15:00:45;101137.91;;;-10.85;67.08
38530;BME280;24301;54.332;48.386;2022-12-07T15:03:13;101148.41;;;-10.82;67.23
38530;BME280;24301;54.332;48.386;2022-12-07T15:05:40;101141.44;;;-10.92;67.37